Albion, New York
Current Conditions -  °F | °C
As of 8:54 AM on Monday 24 Nov 2014 (Local Time) from KROC Reporting Station
Few Clouds Few Clouds  
Wind Chill: 63°   Ceiling: Unl
Heat Index: 63°   Visibility: 10mi
Dew Point: 51°   Wind: 16mph
Humidity: 65%   Direction: 220°SW
Pressure: 29.34"   Gusts: 32mph
Location:  43.25°N, 78.19°W
Report Text: KROC 241354Z 22014G28KT 10SM FEW085 17/11 A2934 RMK AO2 PK WND 21030/1336 SLP939 T01720106
Loading
Personal Weather Stations






























Interactive Weather Map New forecast layout! Learn more

10-Day Weather Forecast

Advertisements
Track Severe Weather on mobile